createdAt,value
2018-08-03T00:00:16.073Z,26.8
2018-08-03T00:01:17.721Z,26.9
2018-08-03T00:02:19.156Z,26.9
2018-08-03T00:03:20.594Z,27
2018-08-03T00:04:22.070Z,26.9
2018-08-03T00:05:23.725Z,26.9
2018-08-03T00:06:28.111Z,26.9
2018-08-03T00:07:29.534Z,26.8
2018-08-03T00:08:33.224Z,26.8
2018-08-03T00:09:34.579Z,26.6
2018-08-03T00:10:38.260Z,26.4
2018-08-03T00:11:39.941Z,26.4
2018-08-03T00:12:43.865Z,26.2
2018-08-03T00:13:45.493Z,26.2
2018-08-03T00:14:47.083Z,26.1
2018-08-03T00:15:48.728Z,26
2018-08-03T00:16:50.086Z,26
2018-08-03T00:17:54.317Z,26
2018-08-03T00:18:57.068Z,25.9
2018-08-03T00:19:58.524Z,25.8
2018-08-03T00:21:00.155Z,25.8
2018-08-03T00:22:01.615Z,26.1
2018-08-03T00:23:03.054Z,26.1
2018-08-03T00:24:04.445Z,26
2018-08-03T00:25:05.906Z,26.4
2018-08-03T00:26:07.484Z,26.5
2018-08-03T00:27:08.993Z,26.5
2018-08-03T00:28:10.457Z,26.5
2018-08-03T00:29:12.002Z,26.5
2018-08-03T00:30:16.516Z,26.5
2018-08-03T00:31:18.166Z,26.5
2018-08-03T00:32:22.666Z,26.6
2018-08-03T00:33:24.804Z,26.5
2018-08-03T00:34:26.174Z,26.6
2018-08-03T00:35:27.769Z,26.6
2018-08-03T00:36:29.432Z,26.6
2018-08-03T00:37:30.929Z,26
2018-08-03T00:38:32.369Z,26.2
2018-08-03T00:39:33.882Z,26.4
2018-08-03T00:40:35.276Z,26.2
2018-08-03T00:41:36.867Z,26.2
2018-08-03T00:42:38.282Z,26.2
2018-08-03T00:43:39.898Z,26.2
2018-08-03T00:44:41.323Z,26.1
2018-08-03T00:45:44.533Z,26
2018-08-03T00:46:46.116Z,26.1
2018-08-03T00:47:47.602Z,26.2
2018-08-03T00:48:48.969Z,26.3
2018-08-03T00:49:53.282Z,26.4
2018-08-03T00:50:56.599Z,26.2
2018-08-03T00:51:58.080Z,26.2
2018-08-03T00:52:59.670Z,26.3
2018-08-03T00:54:01.146Z,26.3
2018-08-03T00:55:05.490Z,26
2018-08-03T00:56:06.867Z,25.8
2018-08-03T00:57:08.308Z,25.6
2018-08-03T00:58:09.712Z,25.6
2018-08-03T00:59:11.289Z,25.4
2018-08-03T01:00:12.719Z,25.4
2018-08-03T01:01:14.153Z,25.6
2018-08-03T01:02:15.886Z,25.5
2018-08-03T01:03:17.365Z,25.3
2018-08-03T01:04:18.963Z,25.3
2018-08-03T01:05:20.334Z,25.4
2018-08-03T01:06:21.642Z,25.3
2018-08-03T01:07:23.015Z,25.4
2018-08-03T01:08:24.518Z,25.5
2018-08-03T01:09:25.968Z,25.6
2018-08-03T01:10:27.445Z,25.7
2018-08-03T01:11:28.953Z,25.6
2018-08-03T01:12:30.458Z,25.8
2018-08-03T01:13:32.038Z,25.6
2018-08-03T01:14:33.477Z,25.5
2018-08-03T01:15:35.020Z,25.7
2018-08-03T01:16:36.689Z,25.8
2018-08-03T01:17:38.592Z,25.9
2018-08-03T01:18:39.978Z,25.8
2018-08-03T01:19:41.368Z,25.9
2018-08-03T01:20:44.192Z,25.9
2018-08-03T01:21:46.913Z,25.9
2018-08-03T01:22:48.369Z,25.8
2018-08-03T01:23:51.049Z,25.8
2018-08-03T01:24:52.547Z,25.9
2018-08-03T01:25:53.984Z,25.9
2018-08-03T01:26:55.402Z,25.9
2018-08-03T01:27:59.292Z,25.9
2018-08-03T01:29:00.728Z,25.9
2018-08-03T01:30:02.458Z,25.8
2018-08-03T01:31:03.885Z,25.7
2018-08-03T01:32:05.299Z,25.7
2018-08-03T01:33:06.867Z,25.7
2018-08-03T01:34:08.242Z,25.7
2018-08-03T01:35:09.658Z,25.7
2018-08-03T01:36:11.025Z,25.7
2018-08-03T01:37:12.551Z,25.7
2018-08-03T01:38:13.992Z,25.7
2018-08-03T01:39:15.417Z,25.6
2018-08-03T01:40:16.885Z,25.7
2018-08-03T01:41:18.597Z,25.8
2018-08-03T01:42:20.140Z,25.7
2018-08-03T01:43:21.685Z,25.6
2018-08-03T01:44:23.213Z,25.4
2018-08-03T01:45:24.563Z,24.9
2018-08-03T01:46:26.185Z,24.5
2018-08-03T01:47:27.580Z,24.6
2018-08-03T01:48:29.175Z,24.4
2018-08-03T01:49:30.666Z,24.4
2018-08-03T01:50:32.071Z,24.4
2018-08-03T01:51:33.722Z,24.1
2018-08-03T01:52:35.734Z,23.9
2018-08-03T01:53:37.260Z,23.3
2018-08-03T01:54:38.667Z,23.4
2018-08-03T01:55:40.196Z,23.3
2018-08-03T01:56:46.127Z,24.1
2018-08-03T01:57:47.583Z,24.7
2018-08-03T01:58:49.450Z,25
2018-08-03T01:59:50.851Z,25.1
2018-08-03T02:00:52.428Z,25.2
2018-08-03T02:01:53.903Z,25.3
2018-08-03T02:02:55.437Z,25.3
2018-08-03T02:03:57.045Z,25
2018-08-03T02:04:58.623Z,24.7
2018-08-03T02:06:00.050Z,24.5
2018-08-03T02:07:01.490Z,24.7
2018-08-03T02:08:03.005Z,25
2018-08-03T02:09:04.631Z,25.2
2018-08-03T02:10:06.108Z,24.9
2018-08-03T02:11:07.539Z,24.6
2018-08-03T02:12:11.517Z,24.4
2018-08-03T02:13:12.933Z,24.4
2018-08-03T02:14:14.493Z,24.6
2018-08-03T02:15:15.977Z,24.6
2018-08-03T02:16:17.497Z,24.6
2018-08-03T02:17:19.095Z,24.5
2018-08-03T02:18:20.496Z,24.7
2018-08-03T02:19:22.035Z,25
2018-08-03T02:20:23.455Z,25.1
2018-08-03T02:21:24.798Z,25.2
2018-08-03T02:22:26.275Z,25.2
2018-08-03T02:23:30.452Z,25.2
2018-08-03T02:24:32.040Z,25
2018-08-03T02:25:34.813Z,25.1
2018-08-03T02:26:36.479Z,25.1
2018-08-03T02:27:37.990Z,25.2
2018-08-03T02:28:39.518Z,24.9
2018-08-03T02:29:41.065Z,25
2018-08-03T02:30:42.609Z,25.1
2018-08-03T02:31:44.137Z,25.1
2018-08-03T02:32:48.220Z,24.9
2018-08-03T02:33:49.770Z,24.6
2018-08-03T02:34:51.289Z,24.4
2018-08-03T02:35:52.786Z,24.7
2018-08-03T02:36:54.456Z,24.9
2018-08-03T02:37:55.783Z,25
2018-08-03T02:38:57.161Z,25.1
2018-08-03T02:39:58.719Z,25.1
2018-08-03T02:41:00.160Z,25.2
2018-08-03T02:42:01.538Z,25.1
2018-08-03T02:43:02.951Z,25.1
2018-08-03T02:45:15.162Z,25.1
2018-08-03T02:46:16.786Z,25.1
2018-08-03T02:47:23.340Z,25
2018-08-03T02:48:24.858Z,25
2018-08-03T02:49:26.191Z,24.8
2018-08-03T02:50:27.761Z,24.8
2018-08-03T02:51:29.240Z,24.9
2018-08-03T02:53:40.258Z,24.9
2018-08-03T02:54:41.818Z,24.9
2018-08-03T02:55:43.492Z,24.9
2018-08-03T02:56:45.033Z,24.9
2018-08-03T02:57:46.484Z,24.8
2018-08-03T02:58:50.474Z,24.8
2018-08-03T02:59:51.976Z,24.7
2018-08-03T03:00:53.629Z,24.7
2018-08-03T03:01:55.284Z,24.6
2018-08-03T03:02:56.868Z,24.5
2018-08-03T03:03:58.469Z,24.3
2018-08-03T03:04:59.878Z,24.1
2018-08-03T03:06:01.454Z,24.1
2018-08-03T03:07:02.949Z,23.9
2018-08-03T03:08:04.335Z,24.1
2018-08-03T03:09:05.709Z,24.4
2018-08-03T03:10:07.197Z,24.6
2018-08-03T03:11:08.729Z,24.7
2018-08-03T03:12:10.109Z,24.7
2018-08-03T03:13:11.523Z,24.8
2018-08-03T03:14:13.180Z,24.8
2018-08-03T03:15:14.826Z,24.6
2018-08-03T03:16:16.634Z,24.2
2018-08-03T03:17:18.176Z,24.1
2018-08-03T03:18:19.668Z,23.9
2018-08-03T03:19:21.146Z,23.8
2018-08-03T03:20:22.623Z,23.7
2018-08-03T03:21:24.341Z,23.7
2018-08-03T03:22:25.771Z,23.6
2018-08-03T03:23:27.152Z,23.5
2018-08-03T03:24:28.589Z,23.5
2018-08-03T03:25:30.472Z,23.6
2018-08-03T03:26:32.188Z,24
2018-08-03T03:27:35.929Z,24.3
2018-08-03T03:28:37.348Z,24.4
2018-08-03T03:29:39.237Z,24.5
2018-08-03T03:30:40.869Z,24.5
2018-08-03T03:31:42.899Z,24.5
2018-08-03T03:32:44.281Z,24.5
2018-08-03T03:33:45.815Z,24.4
2018-08-03T03:34:47.249Z,24.2
2018-08-03T03:35:48.881Z,24.4
2018-08-03T03:36:50.743Z,24.4
2018-08-03T03:37:52.517Z,24.4
2018-08-03T03:38:53.908Z,24.4
2018-08-03T03:39:55.537Z,24.5
2018-08-03T03:40:57.026Z,24.5
2018-08-03T03:41:58.537Z,24.5
2018-08-03T03:43:00.068Z,24.5
2018-08-03T03:44:01.614Z,24.4
2018-08-03T03:45:03.015Z,24.4
2018-08-03T03:46:04.501Z,24.4
2018-08-03T03:47:06.036Z,24.4
2018-08-03T03:48:07.512Z,24.4
2018-08-03T03:49:09.018Z,24.4
2018-08-03T03:50:10.462Z,24.2
2018-08-03T03:51:12.022Z,24.1
2018-08-03T03:52:13.747Z,23.8
2018-08-03T03:53:15.344Z,23.6
2018-08-03T03:54:16.868Z,23.6
2018-08-03T03:55:18.481Z,23.8
2018-08-03T03:56:20.055Z,24.1
2018-08-03T03:57:21.608Z,24.2
2018-08-03T03:58:23.025Z,24.2
2018-08-03T03:59:24.512Z,24
2018-08-03T04:00:26.082Z,24
2018-08-03T04:01:28.505Z,23.9
2018-08-03T04:02:29.995Z,23.8
2018-08-03T04:03:31.525Z,23.6
2018-08-03T04:04:32.991Z,23.6
2018-08-03T04:05:34.496Z,23.7
2018-08-03T04:06:36.129Z,24
2018-08-03T04:07:37.641Z,24.1
2018-08-03T04:08:39.136Z,24
2018-08-03T04:09:40.713Z,23.8
2018-08-03T04:10:44.375Z,23.5
2018-08-03T04:11:45.812Z,23.5
2018-08-03T04:12:49.451Z,23.5
2018-08-03T04:13:50.857Z,23.7
2018-08-03T04:14:52.302Z,23.8
2018-08-03T04:15:53.794Z,23.9
2018-08-03T04:16:55.213Z,23.9
2018-08-03T04:17:56.774Z,24
2018-08-03T04:18:58.155Z,24
2018-08-03T04:19:59.636Z,23.9
2018-08-03T04:21:01.210Z,23.6
2018-08-03T04:22:02.743Z,23.3
2018-08-03T04:23:04.190Z,23
2018-08-03T04:24:05.630Z,23
2018-08-03T04:25:06.998Z,23.2
2018-08-03T04:26:08.398Z,23.3
2018-08-03T04:27:09.829Z,23.1
2018-08-03T04:28:11.442Z,22.9
2018-08-03T04:29:13.702Z,23.2
2018-08-03T04:30:15.215Z,23.2
2018-08-03T04:31:16.671Z,23.2
2018-08-03T04:32:18.208Z,23.2
2018-08-03T04:33:19.819Z,23.2
2018-08-03T04:34:21.300Z,23.3
2018-08-03T04:35:22.775Z,23.5
2018-08-03T04:36:26.413Z,23.6
2018-08-03T04:37:27.841Z,23.8
2018-08-03T04:38:29.715Z,23.9
2018-08-03T04:39:31.266Z,24.2
2018-08-03T04:40:32.768Z,24.4
2018-08-03T04:41:34.239Z,24.5
2018-08-03T04:42:35.801Z,24.6
2018-08-03T04:43:37.165Z,24.6
2018-08-03T04:44:38.718Z,24.7
2018-08-03T04:45:40.196Z,24.8
2018-08-03T04:46:41.647Z,24.9
2018-08-03T04:47:43.213Z,25.1
2018-08-03T04:48:44.811Z,25.2
2018-08-03T04:49:46.238Z,25.2
2018-08-03T04:50:47.705Z,25.3
2018-08-03T04:51:49.165Z,25.4
2018-08-03T04:52:50.805Z,25.5
2018-08-03T04:53:52.320Z,25.5
2018-08-03T04:54:53.660Z,25.5
2018-08-03T04:55:55.803Z,25.5
2018-08-03T04:56:57.185Z,25.5
2018-08-03T04:57:58.589Z,25.6
2018-08-03T04:59:00.191Z,25.6
2018-08-03T05:00:01.643Z,25.7
2018-08-03T05:01:03.044Z,25.9
2018-08-03T05:02:05.243Z,26
2018-08-03T05:03:07.702Z,26.6
2018-08-03T05:04:09.216Z,26.7
2018-08-03T05:05:10.621Z,27.2
2018-08-03T05:06:13.685Z,27.4
2018-08-03T05:07:15.166Z,27.3
2018-08-03T05:08:17.847Z,27.1
2018-08-03T05:09:19.353Z,26.8
2018-08-03T05:10:22.072Z,26.7
2018-08-03T05:11:23.574Z,26.5
2018-08-03T05:12:25.153Z,26.6
2018-08-03T05:13:26.636Z,26.7
2018-08-03T05:14:28.140Z,26.8
2018-08-03T05:15:29.643Z,26.8
2018-08-03T05:16:31.133Z,26.9
2018-08-03T05:17:32.571Z,27.1
2018-08-03T05:18:33.984Z,27.1
2018-08-03T05:19:35.384Z,27.1
2018-08-03T05:20:36.777Z,27.1
2018-08-03T05:21:38.378Z,27.1
2018-08-03T05:22:40.140Z,27.1
2018-08-03T05:23:41.703Z,27.1
2018-08-03T05:24:43.352Z,27.2
2018-08-03T05:25:44.846Z,27.3
2018-08-03T05:26:46.256Z,27.3
2018-08-03T05:27:47.743Z,27.4
2018-08-03T05:28:51.545Z,28.1
2018-08-03T05:29:54.850Z,29
2018-08-03T05:30:56.301Z,29.5
2018-08-03T05:31:57.834Z,29
2018-08-03T05:32:59.433Z,28.8
2018-08-03T05:34:00.872Z,28.1
2018-08-03T05:35:02.459Z,27.9
2018-08-03T05:36:05.843Z,28.1
2018-08-03T05:37:07.189Z,28.1
2018-08-03T05:38:11.420Z,28
2018-08-03T05:39:12.964Z,28.5
2018-08-03T05:40:14.364Z,28.4
2018-08-03T05:41:17.046Z,28.5
2018-08-03T05:42:21.591Z,28.3
2018-08-03T05:43:23.175Z,28.4
2018-08-03T05:44:24.794Z,28.5
2018-08-03T05:45:26.294Z,28.6
2018-08-03T05:46:27.833Z,28.8
2018-08-03T05:47:40.229Z,30.8
2018-08-03T05:48:41.765Z,31
2018-08-03T05:49:43.233Z,30.4
2018-08-03T05:50:46.637Z,30.1
2018-08-03T05:51:48.162Z,29.5
2018-08-03T05:52:50.549Z,29.3
2018-08-03T05:53:52.041Z,29.1
2018-08-03T05:54:53.515Z,29.1
2018-08-03T05:55:55.067Z,29.8
2018-08-03T05:56:56.450Z,30.6
2018-08-03T05:58:00.384Z,30
2018-08-03T05:59:06.546Z,29.8
2018-08-03T06:00:08.033Z,29.7
2018-08-03T06:01:09.613Z,29.7
2018-08-03T06:02:12.677Z,30.7
2018-08-03T06:03:16.248Z,30.6
2018-08-03T06:04:17.679Z,30.1
2018-08-03T06:05:18.989Z,29.8
2018-08-03T06:06:25.317Z,30
2018-08-03T06:07:26.686Z,30
2018-08-03T06:08:28.184Z,30.1
2018-08-03T06:09:29.602Z,30.2
2018-08-03T06:10:30.985Z,30.9
2018-08-03T06:11:32.673Z,31
2018-08-03T06:12:34.049Z,34.2
2018-08-03T06:13:35.488Z,34.2
2018-08-03T06:14:37.004Z,32.3
2018-08-03T06:15:41.378Z,31.2
2018-08-03T06:16:44.364Z,34
2018-08-03T06:17:45.783Z,33.5
2018-08-03T06:18:47.307Z,32.7
2018-08-03T06:19:51.422Z,32.7
2018-08-03T06:20:53.329Z,31.1
2018-08-03T06:21:54.764Z,31.6
2018-08-03T06:22:56.333Z,31.2
2018-08-03T06:23:57.778Z,31
2018-08-03T06:25:01.654Z,31
2018-08-03T06:26:06.014Z,30.9
2018-08-03T06:27:07.540Z,31
2018-08-03T06:28:09.806Z,33.5
2018-08-03T06:29:11.567Z,32.6
2018-08-03T06:30:17.858Z,32
2018-08-03T06:31:19.224Z,33.3
2018-08-03T06:32:20.653Z,34.9
2018-08-03T06:33:22.309Z,33.2
2018-08-03T06:34:23.698Z,32
2018-08-03T06:35:27.741Z,33.3
2018-08-03T06:36:29.086Z,31.8
2018-08-03T06:37:30.811Z,33.4
2018-08-03T06:38:32.513Z,35.3
2018-08-03T06:39:33.883Z,33.4
2018-08-03T06:40:35.402Z,35.9
2018-08-03T06:41:36.834Z,35.5
2018-08-03T06:42:38.425Z,34.8
2018-08-03T06:43:39.776Z,34.4
2018-08-03T06:44:41.301Z,32.9
2018-08-03T06:45:42.783Z,32.1
2018-08-03T06:46:44.211Z,32.5
2018-08-03T06:47:45.654Z,34
2018-08-03T06:48:47.299Z,35.1
2018-08-03T06:49:48.687Z,33.8
2018-08-03T06:50:50.127Z,33.7
2018-08-03T06:51:51.592Z,32.9
2018-08-03T06:52:53.033Z,34.3
2018-08-03T06:53:54.483Z,32.7
2018-08-03T06:54:55.888Z,33.6
2018-08-03T06:55:57.338Z,32.7
2018-08-03T06:56:58.893Z,32
2018-08-03T06:58:02.878Z,35.3
2018-08-03T06:59:04.241Z,34
2018-08-03T07:00:06.828Z,32.7
2018-08-03T07:01:08.337Z,33.6
2018-08-03T07:02:09.786Z,32.7
2018-08-03T07:03:11.512Z,34.5
2018-08-03T07:04:14.999Z,33.4
2018-08-03T07:05:16.313Z,32.6
2018-08-03T07:06:18.365Z,33.9
2018-08-03T07:07:19.840Z,34.7
2018-08-03T07:08:21.554Z,35.8
2018-08-03T07:09:23.067Z,34.5
2018-08-03T07:10:24.625Z,35.6
2018-08-03T07:11:26.354Z,36.1
2018-08-03T07:12:30.702Z,35
2018-08-03T07:13:34.663Z,36.4
2018-08-03T07:14:38.670Z,34.5
2018-08-03T07:15:42.943Z,33.7
2018-08-03T07:16:44.447Z,33.3
2018-08-03T07:17:48.411Z,33.4
2018-08-03T07:18:54.153Z,33.4
2018-08-03T07:19:57.441Z,33.2
2018-08-03T07:20:59.967Z,33.2
2018-08-03T07:22:04.443Z,33.1
2018-08-03T07:23:09.261Z,33.2
2018-08-03T07:24:10.817Z,33.3
2018-08-03T07:25:15.235Z,33.4
2018-08-03T07:26:16.554Z,33.4
2018-08-03T07:27:18.401Z,33.4
2018-08-03T07:28:20.037Z,33.5
2018-08-03T07:29:21.719Z,33.4
2018-08-03T07:30:23.169Z,33.4
2018-08-03T07:31:24.653Z,33.5
2018-08-03T07:32:26.189Z,33.6
2018-08-03T07:33:27.986Z,33.7
2018-08-03T07:34:29.867Z,33.7
2018-08-03T07:35:34.094Z,33.6
2018-08-03T07:36:36.389Z,33.6
2018-08-03T07:37:37.863Z,33.5
2018-08-03T07:38:39.763Z,33.5
2018-08-03T07:39:41.214Z,33.6
2018-08-03T07:40:45.451Z,33.6
2018-08-03T07:41:46.914Z,33.8
2018-08-03T07:42:49.221Z,33.8
2018-08-03T07:43:50.968Z,33.9
2018-08-03T07:44:52.467Z,33.8
2018-08-03T07:45:54.390Z,33.8
2018-08-03T07:46:55.828Z,33.9
2018-08-03T07:47:57.220Z,33.9
2018-08-03T07:48:58.785Z,33.8
2018-08-03T07:50:00.733Z,33.7
2018-08-03T07:51:02.445Z,33.8
2018-08-03T07:52:04.131Z,34
2018-08-03T07:53:08.360Z,34
2018-08-03T07:54:10.050Z,34.2
2018-08-03T07:55:11.861Z,34.2
2018-08-03T07:56:13.438Z,34.2
2018-08-03T07:57:15.048Z,34.2
2018-08-03T07:58:17.423Z,34.3
2018-08-03T07:59:18.850Z,34.4
2018-08-03T08:00:23.668Z,34.4
2018-08-03T08:01:25.151Z,34.3
2018-08-03T08:02:26.693Z,34.4
2018-08-03T08:03:29.816Z,34.5
2018-08-03T08:04:31.207Z,34.3
2018-08-03T08:05:32.635Z,34.5
2018-08-03T08:06:35.435Z,34.5
2018-08-03T08:07:41.345Z,34.5
2018-08-03T08:08:42.818Z,34.5
2018-08-03T08:09:47.296Z,34.5
2018-08-03T08:10:51.704Z,34.6
2018-08-03T08:11:55.494Z,34.5
2018-08-03T08:12:56.943Z,34.7
2018-08-03T08:13:58.543Z,34.8
2018-08-03T08:15:01.808Z,34.9
2018-08-03T08:16:03.412Z,34.9
2018-08-03T08:17:05.078Z,34.8
2018-08-03T08:18:06.468Z,34.7
2018-08-03T08:19:09.465Z,34.7
2018-08-03T08:20:12.115Z,34.8
2018-08-03T08:21:13.748Z,34.7
2018-08-03T08:22:18.147Z,34.8
2018-08-03T08:23:22.595Z,35
2018-08-03T08:24:28.578Z,35
2018-08-03T08:25:31.153Z,35
2018-08-03T08:26:32.656Z,35.2
2018-08-03T08:27:34.060Z,35.2
2018-08-03T08:28:35.404Z,35.4
2018-08-03T08:29:39.511Z,35.3
2018-08-03T08:30:40.883Z,35.1
2018-08-03T08:31:53.265Z,34.9
2018-08-03T08:32:54.666Z,34.8
2018-08-03T08:33:56.866Z,34.8
2018-08-03T08:34:58.326Z,35
2018-08-03T08:36:05.534Z,35.2
2018-08-03T08:37:09.081Z,35.4
2018-08-03T08:38:13.119Z,35.5
2018-08-03T08:39:14.697Z,35.6
2018-08-03T08:40:16.034Z,35.5
2018-08-03T08:41:17.362Z,35.6
2018-08-03T08:42:20.106Z,35.6
2018-08-03T08:43:21.701Z,35.6
2018-08-03T08:44:23.812Z,35.5
2018-08-03T08:45:31.204Z,35.7
2018-08-03T08:46:34.087Z,35.6
2018-08-03T08:47:40.931Z,35.4
2018-08-03T08:48:42.412Z,35.5
2018-08-03T08:49:43.707Z,35.4
2018-08-03T08:50:45.060Z,35.6
2018-08-03T08:51:49.614Z,35.8
2018-08-03T08:52:54.812Z,35.9
2018-08-03T08:54:00.859Z,35.9
2018-08-03T08:55:02.233Z,36
2018-08-03T08:56:03.713Z,36
2018-08-03T08:57:05.147Z,35.9
2018-08-03T08:58:06.646Z,35.9
2018-08-03T08:59:10.548Z,35.9
2018-08-03T09:00:13.041Z,35.9
2018-08-03T09:01:14.573Z,35.9
2018-08-03T09:02:18.200Z,35.9
2018-08-03T09:03:22.770Z,36
2018-08-03T09:04:27.046Z,35.9
2018-08-03T09:05:28.483Z,36.1
2018-08-03T09:06:30.185Z,36
2018-08-03T09:07:32.813Z,36.1
2018-08-03T09:08:39.500Z,36.2
2018-08-03T09:09:42.889Z,36.1
2018-08-03T09:10:45.149Z,36.1
2018-08-03T09:11:46.500Z,36.1
2018-08-03T09:12:50.330Z,36.1
2018-08-03T09:13:53.771Z,36.1
2018-08-03T09:14:57.391Z,36.1
2018-08-03T09:16:00.840Z,36.4
2018-08-03T09:17:09.242Z,35.9
2018-08-03T09:18:12.105Z,35.8
2018-08-03T09:19:13.831Z,35.9
2018-08-03T09:20:29.367Z,35.9
2018-08-03T09:21:31.432Z,35.9
2018-08-03T09:22:32.826Z,35.9
2018-08-03T09:23:34.193Z,35.8
2018-08-03T09:24:35.677Z,35.8
2018-08-03T09:25:37.401Z,35.9
2018-08-03T09:26:42.380Z,36
2018-08-03T09:27:46.139Z,35.9
2018-08-03T09:28:47.541Z,35.8
2018-08-03T09:29:51.798Z,35.7
2018-08-03T09:30:53.199Z,35.8
2018-08-03T09:31:59.192Z,35.9
2018-08-03T09:33:08.311Z,35.8
2018-08-03T09:34:09.770Z,35.7
2018-08-03T09:35:15.957Z,35.7
2018-08-03T09:36:17.376Z,35.7
2018-08-03T09:37:20.319Z,35.7
2018-08-03T09:38:21.999Z,35.8
2018-08-03T09:39:26.333Z,35.8
2018-08-03T09:40:28.055Z,35.8
2018-08-03T09:41:37.694Z,35.9
2018-08-03T09:42:41.899Z,36
2018-08-03T09:43:46.043Z,35.9
2018-08-03T09:44:52.349Z,35.8
2018-08-03T09:45:53.896Z,35.8
2018-08-03T09:46:55.510Z,35.7
2018-08-03T09:47:58.481Z,35.7
2018-08-03T09:49:02.567Z,35.7
2018-08-03T09:50:04.869Z,35.8
2018-08-03T09:51:06.750Z,35.8
2018-08-03T09:52:16.107Z,35.8
2018-08-03T09:53:17.826Z,35.7
2018-08-03T09:54:19.272Z,35.6
2018-08-03T09:55:21.316Z,35.5
2018-08-03T09:56:23.915Z,35.4
2018-08-03T09:57:26.265Z,35.4
2018-08-03T09:58:30.435Z,35.4
2018-08-03T09:59:32.987Z,35.2
2018-08-03T10:00:36.880Z,35.4
2018-08-03T10:01:42.030Z,35.3
2018-08-03T10:02:46.635Z,35.4
2018-08-03T10:03:59.278Z,35.4
2018-08-03T10:05:04.332Z,35.7
2018-08-03T10:06:05.558Z,35.9
2018-08-03T10:07:09.509Z,35.7
2018-08-03T10:08:13.227Z,35.6
2018-08-03T10:09:14.438Z,35.6
2018-08-03T10:10:18.306Z,35.6
2018-08-03T10:11:22.683Z,35.4
2018-08-03T10:12:31.588Z,35.3
2018-08-03T10:13:32.890Z,35.2
2018-08-03T10:14:36.654Z,35.2
2018-08-03T10:15:42.022Z,35.2
2018-08-03T10:16:45.641Z,35.2
2018-08-03T10:17:54.838Z,35.1
2018-08-03T10:19:02.187Z,35.2
2018-08-03T10:20:03.525Z,35.3
2018-08-03T10:21:05.807Z,35.3
2018-08-03T10:22:11.724Z,35.2
2018-08-03T10:23:15.446Z,35.1
2018-08-03T10:24:21.418Z,35
2018-08-03T10:25:22.888Z,35.2
2018-08-03T10:26:24.154Z,35.2
2018-08-03T10:27:28.099Z,35.2
2018-08-03T10:28:29.610Z,35.3
2018-08-03T10:29:32.372Z,35.3
2018-08-03T10:30:33.887Z,35.3
2018-08-03T10:31:37.298Z,35.3
2018-08-03T10:32:42.535Z,35.3
2018-08-03T10:33:43.870Z,35.3
2018-08-03T10:34:45.078Z,35.4
2018-08-03T10:35:46.470Z,35.4
2018-08-03T10:36:50.049Z,35.3
2018-08-03T10:37:54.237Z,35.4
2018-08-03T10:38:58.123Z,35.2
2018-08-03T10:39:59.542Z,35.3
2018-08-03T10:41:03.228Z,35.3
2018-08-03T10:43:21.075Z,35.2
2018-08-03T10:44:22.322Z,35.1
2018-08-03T10:45:33.993Z,35.2
2018-08-03T10:46:39.149Z,35.2
2018-08-03T10:47:41.378Z,35.2
2018-08-03T10:48:48.556Z,35.2
2018-08-03T10:49:49.827Z,35.2
2018-08-03T10:50:55.750Z,35.2
2018-08-03T10:51:59.201Z,35.1
2018-08-03T10:53:00.654Z,35.1
2018-08-03T10:54:10.607Z,35
2018-08-03T10:55:16.648Z,35
2018-08-03T10:56:20.619Z,35.1
2018-08-03T10:57:21.895Z,35.1
2018-08-03T10:58:24.422Z,35.1
2018-08-03T10:59:25.604Z,35
2018-08-03T11:00:28.962Z,35
2018-08-03T11:01:30.573Z,35
2018-08-03T11:02:31.699Z,35
2018-08-03T11:03:35.382Z,34.9
2018-08-03T11:04:36.722Z,35
2018-08-03T11:05:38.762Z,35
2018-08-03T11:06:44.900Z,35
2018-08-03T11:07:46.117Z,34.9
2018-08-03T11:08:47.594Z,34.8
2018-08-03T11:09:48.808Z,34.9
2018-08-03T11:10:50.258Z,34.9
2018-08-03T11:11:54.472Z,34.9
2018-08-03T11:12:57.784Z,34.9
2018-08-03T11:13:59.258Z,35
2018-08-03T11:15:02.268Z,34.9
2018-08-03T11:17:09.917Z,35
2018-08-03T11:18:11.096Z,34.9
2018-08-03T11:19:12.309Z,34.9
2018-08-03T11:20:15.101Z,34.8
2018-08-03T11:21:19.325Z,34.8
2018-08-03T11:22:21.849Z,34.8
2018-08-03T11:23:24.966Z,34.7
2018-08-03T11:24:26.228Z,34.8
2018-08-03T11:25:27.430Z,34.7
2018-08-03T11:26:28.726Z,34.8
2018-08-03T11:27:30.254Z,34.7
2018-08-03T11:28:31.588Z,34.7
2018-08-03T11:29:32.904Z,34.8
2018-08-03T11:31:52.780Z,34.7
2018-08-03T11:32:54.197Z,34.5
2018-08-03T11:33:55.413Z,34.6
2018-08-03T11:34:56.852Z,34.6
2018-08-03T11:36:00.371Z,34.6
2018-08-03T11:37:05.658Z,34.6
2018-08-03T11:38:09.619Z,34.7
2018-08-03T11:39:11.934Z,34.7
2018-08-03T11:40:13.257Z,34.6
2018-08-03T11:41:14.456Z,34.6
2018-08-03T11:42:30.105Z,34.6
2018-08-03T11:43:33.700Z,34.5
2018-08-03T11:44:37.452Z,34.5
2018-08-03T11:45:38.753Z,34.5
2018-08-03T11:46:52.109Z,34.5
2018-08-03T11:47:56.320Z,34.4
2018-08-03T11:48:58.828Z,34.4
2018-08-03T11:50:00.018Z,34.4
2018-08-03T11:51:01.290Z,34.5
2018-08-03T11:52:02.512Z,34.5
2018-08-03T11:54:07.754Z,34.5
2018-08-03T11:55:13.466Z,34.5
2018-08-03T11:56:22.138Z,34.5
2018-08-03T11:57:23.418Z,34.5
2018-08-03T11:58:24.670Z,34.5
2018-08-03T11:59:25.997Z,34.4
2018-08-03T12:00:27.159Z,34.3
2018-08-03T12:01:31.349Z,34.3
2018-08-03T12:02:32.529Z,34.4
2018-08-03T12:03:33.865Z,34.4
2018-08-03T12:04:35.281Z,34.3
2018-08-03T12:05:39.380Z,34.3
2018-08-03T12:06:40.596Z,34.3
2018-08-03T12:07:41.818Z,34.3
2018-08-03T12:08:43.024Z,34.3
2018-08-03T12:09:46.085Z,34.2
2018-08-03T12:10:47.665Z,34.2
2018-08-03T12:11:48.847Z,34.2
2018-08-03T12:12:50.063Z,34.2
2018-08-03T12:13:51.232Z,34.2
2018-08-03T12:14:54.429Z,34.2
2018-08-03T12:15:55.588Z,34.2
2018-08-03T12:17:00.763Z,34.2
2018-08-03T12:18:02.127Z,34.2
2018-08-03T12:19:06.397Z,34.1
2018-08-03T12:20:07.646Z,34
2018-08-03T12:21:08.888Z,34.1
2018-08-03T12:22:10.271Z,34.1
2018-08-03T12:23:11.517Z,34.1
2018-08-03T12:24:12.907Z,34.1
2018-08-03T12:25:14.129Z,34.1
2018-08-03T12:26:19.087Z,34.2
2018-08-03T12:27:22.278Z,33.8
2018-08-03T12:28:23.446Z,34
2018-08-03T12:29:24.708Z,34.1
2018-08-03T12:30:26.650Z,34
2018-08-03T12:31:27.884Z,33.7
2018-08-03T12:32:29.301Z,33.8
2018-08-03T12:33:34.925Z,33.9
2018-08-03T12:34:36.410Z,33.9
2018-08-03T12:35:40.921Z,33.8
2018-08-03T12:36:42.381Z,34
2018-08-03T12:37:43.573Z,34
2018-08-03T12:38:49.645Z,34
2018-08-03T12:39:52.653Z,34
2018-08-03T12:40:56.266Z,33.9
2018-08-03T12:41:58.240Z,33.8
2018-08-03T12:42:59.473Z,33.8
2018-08-03T12:44:00.671Z,33.8
2018-08-03T12:45:03.415Z,33.8
2018-08-03T12:46:11.950Z,34
2018-08-03T12:47:26.037Z,34
2018-08-03T12:48:27.184Z,34
2018-08-03T12:49:34.335Z,34.1
2018-08-03T12:50:35.563Z,34.1
2018-08-03T12:51:39.287Z,34
2018-08-03T12:52:41.635Z,34.1
2018-08-03T12:53:45.223Z,34
2018-08-03T12:54:46.400Z,33.9
2018-08-03T12:55:54.160Z,34
2018-08-03T12:56:58.224Z,33.9
2018-08-03T12:57:59.460Z,33.7
2018-08-03T12:59:00.872Z,33.9
2018-08-03T13:00:02.649Z,33.9
2018-08-03T13:01:08.774Z,33.9
2018-08-03T13:02:12.240Z,33.9
2018-08-03T13:03:13.396Z,34
2018-08-03T13:04:14.554Z,33.9
2018-08-03T13:05:17.043Z,33.8
2018-08-03T13:06:20.850Z,33.9
2018-08-03T13:07:22.151Z,33.9
2018-08-03T13:08:33.425Z,33.8
2018-08-03T13:09:36.434Z,33.9
2018-08-03T13:10:37.568Z,33.9
2018-08-03T13:11:41.658Z,33.7
2018-08-03T13:12:44.974Z,33.6
2018-08-03T13:13:46.145Z,33.7
2018-08-03T13:14:48.072Z,33.7
2018-08-03T13:15:49.520Z,33.8
2018-08-03T13:16:50.945Z,33.7
2018-08-03T13:17:52.143Z,33.7
2018-08-03T13:18:54.039Z,33.7
2018-08-03T13:19:55.230Z,33.9
2018-08-03T13:20:56.482Z,33.9
2018-08-03T13:21:57.713Z,33.9
2018-08-03T13:22:59.985Z,33.8
2018-08-03T13:24:01.186Z,33.8
2018-08-03T13:25:05.439Z,33.7
2018-08-03T13:26:06.674Z,33.8
2018-08-03T13:27:08.972Z,33.8
2018-08-03T13:28:10.688Z,33.8
2018-08-03T13:29:11.849Z,33.7
2018-08-03T13:30:16.699Z,33.7
2018-08-03T13:31:17.900Z,33.8
2018-08-03T13:32:19.292Z,33.8
2018-08-03T13:33:20.488Z,33.5
2018-08-03T13:34:24.079Z,33.4
2018-08-03T13:35:25.323Z,33.5
2018-08-03T13:36:29.324Z,33.6
2018-08-03T13:37:30.596Z,33.7
2018-08-03T13:38:31.800Z,33.6
2018-08-03T13:39:32.971Z,33.7
2018-08-03T13:40:34.141Z,33.7
2018-08-03T13:41:37.778Z,33.6
2018-08-03T13:42:41.850Z,33.6
2018-08-03T13:43:47.915Z,33.7
2018-08-03T13:44:49.117Z,33.5
2018-08-03T13:45:53.350Z,33.5
2018-08-03T13:46:54.601Z,33.6
2018-08-03T13:47:55.860Z,33.6
2018-08-03T13:48:57.068Z,33.6
2018-08-03T13:49:58.226Z,33.7
2018-08-03T13:50:59.641Z,33.8
2018-08-03T13:52:00.801Z,33.7
2018-08-03T13:53:02.181Z,33.6
2018-08-03T13:54:06.631Z,33.7
2018-08-03T13:55:07.822Z,33.7
2018-08-03T13:56:09.102Z,33.5
2018-08-03T13:57:10.369Z,33.6
2018-08-03T13:58:11.762Z,33.6
2018-08-03T13:59:12.955Z,33.6
2018-08-03T14:00:14.177Z,33.6
2018-08-03T14:01:18.495Z,33.7
2018-08-03T14:02:23.110Z,33.6
2018-08-03T14:03:31.278Z,33.7